Home > Products > Valid Products > TAF

000
FTUS44 KHUN 301728
TAFHSV
TAF
KHSV 301728Z 3018/3118 36007KT P6SM SCT050 SCT100
     FM310100 VRB02KT P6SM FEW250
     FM311600 VRB04KT P6SM FEW040 SCT250=



000
FTUS44 KHUN 301728
TAFMSL
TAF
KMSL 301728Z 3018/3118 35005KT P6SM SCT050 SCT100
     FM310100 00000KT P6SM FEW250
     FM311600 VRB03KT P6SM FEW040 SCT250=



000
FTUS44 KHUN 290520
TAFMSL
TAF
KMSL 290520Z 2906/3006 VRB03KT P6SM SCT150
     FM291600 30010KT P6SM SCT040
     FM300000 VRB03KT P6SM SKC=



000
FTUS44 KHUN 281725
TAFHSV
TAF
KHSV 281725Z 2818/2918 16009KT P6SM VCSH BKN050 BKN150
     FM282300 14005KT P6SM SCT060 OVC130
     FM290500 VRB03KT P6SM SCT150
     FM291400 30005KT P6SM SCT200=



000
FTUS44 KHUN 281725
TAFMSL
TAF
KMSL 281725Z 2818/2918 19011KT P6SM FEW060 SCT250
     FM282100 16005KT P6SM VCSH BKN050 BKN150
     FM290400 VRB03KT P6SM SCT150
     FM291400 29005KT P6SM SCT200=



000
FTUS44 KHUN 280520
TAFMSL
TAF
KMSL 280520Z 2806/2906 17003KT P6SM SCT060 BKN180
     FM281500 19005KT P6SM SCT060 BKN150
     FM282200 14005KT P6SM BKN050 OVC130=



    US Dept of Commerce
    National Oceanic and Atmospheric Administration
    National Weather Service
    1325 East West Highway
    Silver Spring, MD 20910
    Page Author: NWS Internet Services Team
Disclaimer
Information Quality
Credits
Glossary
Privacy Policy
Freedom of Information Act (FOIA)
About Us
Career Opportunities